Time;durP1;ratioP1;P1;durP2;ratioP2;P2;SDS_P1;SDS_P2;PMS_P1;PMS_P2;Temp;Humidity;BMP_temperature;BMP_pressure;BME280_temperature;BME280_humidity;BME280_pressure;Samples;Min_cycle;Max_cycle;Signal;HPM_P1;HPM_P2
2022/12/19 00:00:33;;;;;;;;;;;2.30;99.90;;;;;;4999400;28;19952;-82
2022/12/19 00:03:00;;;;;;;;;;;2.30;99.90;;;;;;5015997;28;19934;-81
2022/12/19 00:05:27;;;;;;;;;;;2.30;99.90;;;;;;4989672;28;19914;-82
2022/12/19 00:07:54;;;;;;;;;;;2.30;99.90;;;;;;5016053;28;19929;-81
2022/12/19 00:10:22;;;;;;;;;;;2.30;99.90;;;;;;5022657;28;20248;-84
2022/12/19 00:12:49;;;;;;;;;;;3.70;99.90;;;;;;5003267;28;19925;-80
2022/12/19 00:15:17;;;;;;;;;;;2.40;99.90;;;;;;4992829;28;19926;-80
2022/12/19 00:17:44;;;;;;;;;;;2.40;99.90;;;;;;5014503;28;19948;-83
2022/12/19 00:20:11;;;;;;;;;;;2.40;99.90;;;;;;5015759;28;19930;-80
2022/12/19 00:22:38;;;;;;;;;;;2.50;99.90;;;;;;5015535;28;19933;-84
2022/12/19 00:25:05;;;;;;;;;;;2.50;99.90;;;;;;5004332;28;19913;-81
2022/12/19 00:27:33;;;;;;;;;;;2.50;99.90;;;;;;5014152;28;19929;-81
2022/12/19 00:30:00;;;;;;;;;;;2.50;99.90;;;;;;4999584;28;19934;-81
2022/12/19 00:32:29;;;;;;;;;;;2.50;99.90;;;;;;5008870;28;19932;-81
2022/12/19 00:34:55;;;;;;;;;;;2.60;99.90;;;;;;5001810;28;19926;-80
2022/12/19 00:37:22;;;;;;;;;;;2.60;99.90;;;;;;4999799;28;19929;-81
2022/12/19 00:39:49;;;;;;;;;;;2.60;99.90;;;;;;5002310;28;19926;-81
2022/12/19 00:42:16;;;;;;;;;;;2.60;99.90;;;;;;5019449;28;19932;-81
2022/12/19 00:44:43;;;;;;;;;;;2.60;99.90;;;;;;5017042;28;20028;-80
2022/12/19 00:47:10;;;;;;;;;;;2.70;99.90;;;;;;5026857;28;19928;-85
2022/12/19 00:49:39;;;;;;;;;;;2.70;99.90;;;;;;5017725;28;19956;-82
2022/12/19 00:52:06;;;;;;;;;;;2.70;99.90;;;;;;4997808;28;19925;-82
2022/12/19 00:54:33;;;;;;;;;;;2.70;99.90;;;;;;4995600;28;20036;-80
2022/12/19 00:57:00;;;;;;;;;;;2.80;99.90;;;;;;5007305;28;19971;-84
2022/12/19 00:59:27;;;;;;;;;;;2.80;99.90;;;;;;5018046;28;20262;-82
2022/12/19 01:01:56;;;;;;;;;;;2.80;99.90;;;;;;5020700;28;20330;-81
2022/12/19 01:04:23;;;;;;;;;;;2.80;99.90;;;;;;5004339;28;19935;-81
2022/12/19 01:06:53;;;;;;;;;;;2.80;99.90;;;;;;5000579;28;20457;-80
2022/12/19 01:09:20;;;;;;;;;;;2.90;99.90;;;;;;5001577;28;19936;-81
2022/12/19 01:14:33;;;;;;;;;;;2.90;99.90;;;;;;4999899;28;19925;-81
2022/12/19 01:17:00;;;;;;;;;;;2.90;99.90;;;;;;5005226;28;19964;-82
2022/12/19 01:19:27;;;;;;;;;;;2.90;99.90;;;;;;5017522;28;19934;-85
2022/12/19 01:21:56;;;;;;;;;;;2.90;99.90;;;;;;5014320;28;19925;-83
2022/12/19 01:24:23;;;;;;;;;;;2.90;99.90;;;;;;5016443;28;19944;-85
2022/12/19 01:26:49;;;;;;;;;;;2.90;99.90;;;;;;5001036;28;19966;-82
2022/12/19 01:29:17;;;;;;;;;;;2.90;99.90;;;;;;5006136;28;19925;-82
2022/12/19 01:31:45;;;;;;;;;;;2.90;99.90;;;;;;4993449;28;19936;-81
2022/12/19 01:34:12;;;;;;;;;;;2.90;99.90;;;;;;5008493;28;20322;-81
2022/12/19 01:36:39;;;;;;;;;;;2.90;99.90;;;;;;5017700;28;19925;-84
2022/12/19 01:39:08;;;;;;;;;;;2.90;99.90;;;;;;5019048;28;19933;-81
2022/12/19 01:41:35;;;;;;;;;;;2.90;99.90;;;;;;5002314;28;19945;-84
2022/12/19 01:44:04;;;;;;;;;;;3.00;99.90;;;;;;5001738;28;19926;-82
2022/12/19 01:46:33;;;;;;;;;;;3.00;99.90;;;;;;5018683;28;20111;-83
2022/12/19 01:49:01;;;;;;;;;;;3.00;99.90;;;;;;5013430;28;19929;-81
2022/12/19 01:51:31;;;;;;;;;;;3.10;99.90;;;;;;5019348;28;19930;-82
2022/12/19 01:53:59;;;;;;;;;;;3.10;99.90;;;;;;4999076;28;19929;-81
2022/12/19 01:56:29;;;;;;;;;;;3.20;99.90;;;;;;5016035;28;19936;-81
2022/12/19 01:58:57;;;;;;;;;;;3.20;99.90;;;;;;5002838;28;19926;-82
2022/12/19 02:01:24;;;;;;;;;;;3.30;99.90;;;;;;4992331;28;19930;-80
2022/12/19 02:03:52;;;;;;;;;;;3.40;99.90;;;;;;4990852;28;19935;-85
2022/12/19 02:06:19;;;;;;;;;;;3.40;99.90;;;;;;4993986;28;19929;-83
2022/12/19 02:08:48;;;;;;;;;;;3.40;99.90;;;;;;5017063;28;19934;-79
2022/12/19 02:11:15;;;;;;;;;;;3.50;99.90;;;;;;5006426;28;20924;-79
2022/12/19 02:13:43;;;;;;;;;;;3.50;99.90;;;;;;5017109;28;19936;-81
2022/12/19 02:16:15;;;;;;;;;;;3.60;99.90;;;;;;4984362;28;19937;-82
2022/12/19 02:18:48;;;;;;;;;;;3.60;99.90;;;;;;4998480;28;20399;-79
2022/12/19 02:21:27;;;;;;;;;;;3.70;99.90;;;;;;4990307;28;19972;-81
2022/12/19 02:24:15;;;;;;;;;;;3.70;99.90;;;;;;5006809;28;19997;-81
2022/12/19 02:26:48;;;;;;;;;;;3.70;99.90;;;;;;5019236;28;19937;-79
2022/12/19 02:29:25;;;;;;;;;;;3.70;99.90;;;;;;4998181;28;19925;-83
2022/12/19 02:31:56;;;;;;;;;;;3.80;99.90;;;;;;4998987;28;19937;-81
2022/12/19 02:34:29;;;;;;;;;;;3.80;99.90;;;;;;4997162;28;19984;-80
2022/12/19 02:37:02;;;;;;;;;;;3.80;99.90;;;;;;4995991;28;19930;-81
2022/12/19 02:39:31;;;;;;;;;;;4.00;99.90;;;;;;5014087;28;20453;-82
2022/12/19 02:42:00;;;;;;;;;;;4.00;99.90;;;;;;4997744;28;19926;-83
2022/12/19 02:44:30;;;;;;;;;;;4.10;99.90;;;;;;4999577;28;19933;-81
2022/12/19 02:46:59;;;;;;;;;;;4.40;99.90;;;;;;4999315;28;19935;-81
2022/12/19 02:49:28;;;;;;;;;;;4.10;99.90;;;;;;4997337;28;20276;-81
2022/12/19 02:51:55;;;;;;;;;;;4.10;99.90;;;;;;5001102;28;20354;-83
2022/12/19 02:54:23;;;;;;;;;;;4.20;99.90;;;;;;4999117;28;19929;-81
2022/12/19 02:56:54;;;;;;;;;;;4.20;99.90;;;;;;5014271;28;20387;-83
2022/12/19 02:59:29;;;;;;;;;;;4.20;99.90;;;;;;5012968;28;19933;-81
2022/12/19 03:02:02;;;;;;;;;;;4.30;99.90;;;;;;4997849;28;19925;-82
2022/12/19 03:04:38;;;;;;;;;;;4.30;99.90;;;;;;4995890;28;19930;-79
2022/12/19 03:07:13;;;;;;;;;;;4.60;99.90;;;;;;4995653;28;19926;-84
2022/12/19 03:09:46;;;;;;;;;;;4.40;99.90;;;;;;4995163;28;19975;-80
2022/12/19 03:12:16;;;;;;;;;;;4.40;99.90;;;;;;4996063;28;20358;-80
2022/12/19 03:14:44;;;;;;;;;;;4.40;99.90;;;;;;4992914;28;19925;-79
2022/12/19 03:17:12;;;;;;;;;;;4.40;99.90;;;;;;4981054;28;20023;-79
2022/12/19 03:19:40;;;;;;;;;;;4.50;99.90;;;;;;4976283;28;19969;-80
2022/12/19 03:22:07;;;;;;;;;;;4.50;99.90;;;;;;4977694;28;20323;-83
2022/12/19 03:24:34;;;;;;;;;;;4.40;99.90;;;;;;4996860;28;20314;-80
2022/12/19 03:27:03;;;;;;;;;;;4.50;99.90;;;;;;5011378;28;19941;-81
2022/12/19 03:29:31;;;;;;;;;;;4.40;99.90;;;;;;4984557;28;19972;-79
2022/12/19 03:32:00;;;;;;;;;;;4.40;99.90;;;;;;4991667;28;20287;-81
2022/12/19 03:34:30;;;;;;;;;;;4.40;99.90;;;;;;4994253;28;20009;-80
2022/12/19 03:36:59;;;;;;;;;;;4.30;99.90;;;;;;4999129;28;19930;-80
2022/12/19 03:39:26;;;;;;;;;;;4.30;99.90;;;;;;5002832;28;19930;-83
2022/12/19 03:44:40;;;;;;;;;;;4.30;99.90;;;;;;5008674;28;20076;-80
2022/12/19 03:47:10;;;;;;;;;;;4.30;99.90;;;;;;4992162;28;20387;-80
2022/12/19 03:49:38;;;;;;;;;;;4.30;99.90;;;;;;5002344;28;20418;-80
2022/12/19 03:52:11;;;;;;;;;;;4.30;99.90;;;;;;5011145;28;19962;-81
2022/12/19 03:54:39;;;;;;;;;;;4.40;99.90;;;;;;4997070;28;19944;-81
2022/12/19 03:57:09;;;;;;;;;;;4.40;99.90;;;;;;5015951;28;19930;-82
2022/12/19 03:59:39;;;;;;;;;;;4.40;99.90;;;;;;5000563;28;20347;-83
2022/12/19 04:02:07;;;;;;;;;;;4.40;99.90;;;;;;5019500;28;19957;-81
2022/12/19 04:04:36;;;;;;;;;;;4.50;99.90;;;;;;4999666;28;19964;-82
2022/12/19 04:07:05;;;;;;;;;;;4.50;99.90;;;;;;4999563;28;19934;-80
2022/12/19 04:09:33;;;;;;;;;;;4.50;99.90;;;;;;5017245;28;19917;-81
2022/12/19 04:12:02;;;;;;;;;;;4.50;99.90;;;;;;5000150;28;20071;-81
2022/12/19 04:14:31;;;;;;;;;;;4.50;99.90;;;;;;4997961;28;20335;-83
2022/12/19 04:17:06;;;;;;;;;;;4.50;99.90;;;;;;4996596;28;20303;-84
2022/12/19 04:19:36;;;;;;;;;;;4.30;99.90;;;;;;5000343;28;19945;-81
2022/12/19 04:22:07;;;;;;;;;;;4.30;99.90;;;;;;4997086;28;19929;-81
2022/12/19 04:24:36;;;;;;;;;;;4.40;99.90;;;;;;5020382;28;19936;-81
2022/12/19 04:27:04;;;;;;;;;;;4.40;99.90;;;;;;5001666;28;20131;-83
2022/12/19 04:29:32;;;;;;;;;;;4.40;99.90;;;;;;5016766;28;19925;-83
2022/12/19 04:32:01;;;;;;;;;;;4.40;99.90;;;;;;4998537;28;19930;-81
2022/12/19 04:34:28;;;;;;;;;;;4.40;99.90;;;;;;5000053;28;19930;-84
2022/12/19 04:36:58;;;;;;;;;;;4.40;99.90;;;;;;5016131;28;20055;-81
2022/12/19 04:39:29;;;;;;;;;;;4.40;99.90;;;;;;5008702;28;19929;-80
2022/12/19 04:41:56;;;;;;;;;;;4.40;99.90;;;;;;5000265;28;19940;-81
2022/12/19 04:44:23;;;;;;;;;;;4.40;99.90;;;;;;4999907;28;20401;-81
2022/12/19 04:46:50;;;;;;;;;;;4.40;99.90;;;;;;5000163;28;19933;-83
2022/12/19 04:49:17;;;;;;;;;;;4.30;99.90;;;;;;5020684;28;19925;-80
2022/12/19 04:51:48;;;;;;;;;;;4.10;99.90;;;;;;4996744;28;19934;-86
2022/12/19 04:54:16;;;;;;;;;;;4.30;99.90;;;;;;4991915;28;20379;-81
2022/12/19 04:56:44;;;;;;;;;;;4.40;99.90;;;;;;5017067;28;19992;-81
2022/12/19 04:59:11;;;;;;;;;;;4.30;99.90;;;;;;5000123;28;19925;-81
2022/12/19 05:01:38;;;;;;;;;;;4.40;99.90;;;;;;5018736;28;19930;-82
2022/12/19 05:04:05;;;;;;;;;;;4.40;99.90;;;;;;5002283;28;19955;-83
2022/12/19 05:06:35;;;;;;;;;;;4.40;99.90;;;;;;5017525;28;19926;-80
2022/12/19 05:09:01;;;;;;;;;;;4.40;99.90;;;;;;5018907;28;19925;-81
2022/12/19 05:11:28;;;;;;;;;;;4.40;99.90;;;;;;5015704;28;19929;-83
2022/12/19 05:13:58;;;;;;;;;;;4.40;99.90;;;;;;4991869;28;19930;-80
2022/12/19 05:16:25;;;;;;;;;;;4.40;99.90;;;;;;5018203;28;19936;-83
2022/12/19 05:18:53;;;;;;;;;;;4.30;99.90;;;;;;5002734;28;19925;-84
2022/12/19 05:21:20;;;;;;;;;;;4.40;99.90;;;;;;5002371;28;19925;-82
2022/12/19 05:23:48;;;;;;;;;;;4.40;99.90;;;;;;4996881;28;19936;-82
2022/12/19 05:26:15;;;;;;;;;;;4.30;99.90;;;;;;5018169;28;19936;-84
2022/12/19 05:28:42;;;;;;;;;;;4.30;99.90;;;;;;5015050;28;20008;-81
2022/12/19 05:31:11;;;;;;;;;;;4.30;99.90;;;;;;5012842;28;19980;-80
2022/12/19 05:33:39;;;;;;;;;;;4.30;99.90;;;;;;5004219;28;19940;-82
2022/12/19 05:36:07;;;;;;;;;;;4.30;99.90;;;;;;4995324;28;19925;-81
2022/12/19 05:38:34;;;;;;;;;;;4.40;99.90;;;;;;5016070;28;19934;-81
2022/12/19 05:41:05;;;;;;;;;;;4.40;99.90;;;;;;5015237;28;19925;-80
2022/12/19 05:43:33;;;;;;;;;;;4.40;99.90;;;;;;5009489;28;19926;-81
2022/12/19 05:46:00;;;;;;;;;;;4.40;99.90;;;;;;4998829;28;19925;-83
2022/12/19 05:48:28;;;;;;;;;;;4.50;99.90;;;;;;4999606;28;20643;-82
2022/12/19 05:50:55;;;;;;;;;;;4.70;99.90;;;;;;5010272;28;19952;-81
2022/12/19 05:53:22;;;;;;;;;;;4.50;99.90;;;;;;5014209;28;19951;-82
2022/12/19 05:55:49;;;;;;;;;;;4.60;99.90;;;;;;5017123;28;20403;-82
2022/12/19 05:58:16;;;;;;;;;;;4.60;99.90;;;;;;4999233;28;19992;-81
2022/12/19 06:00:44;;;;;;;;;;;4.60;99.90;;;;;;5005992;28;19934;-82
2022/12/19 06:03:14;;;;;;;;;;;4.60;99.90;;;;;;5005590;28;19926;-81
2022/12/19 06:05:44;;;;;;;;;;;4.70;99.90;;;;;;5013309;28;20189;-81
2022/12/19 06:08:10;;;;;;;;;;;4.70;99.90;;;;;;4992645;28;19926;-79
2022/12/19 06:10:37;;;;;;;;;;;4.70;99.90;;;;;;4988837;28;19929;-82
2022/12/19 06:13:08;;;;;;;;;;;4.70;99.90;;;;;;5000143;28;19933;-80
2022/12/19 06:15:34;;;;;;;;;;;4.70;99.90;;;;;;4997874;28;19980;-80
2022/12/19 06:18:05;;;;;;;;;;;4.70;99.90;;;;;;5011026;28;19926;-81
2022/12/19 06:20:32;;;;;;;;;;;5.10;99.90;;;;;;5016141;28;19932;-81
2022/12/19 06:23:02;;;;;;;;;;;5.00;99.90;;;;;;5003244;28;20337;-82
2022/12/19 06:25:29;;;;;;;;;;;4.80;99.90;;;;;;5029919;28;19925;-83
2022/12/19 06:27:55;;;;;;;;;;;4.90;99.90;;;;;;4995501;28;19929;-82
2022/12/19 06:30:22;;;;;;;;;;;4.90;99.90;;;;;;4999506;28;20447;-80
2022/12/19 06:32:49;;;;;;;;;;;5.00;99.90;;;;;;5014620;28;19979;-82
2022/12/19 06:35:17;;;;;;;;;;;5.00;99.90;;;;;;5018096;28;19976;-81
2022/12/19 06:37:45;;;;;;;;;;;5.00;99.90;;;;;;5004328;28;19995;-81
2022/12/19 06:42:21;;;;;;;;;;;5.00;99.90;;;;;;5002116;28;19948;-79
2022/12/19 06:42:59;;;;;;;;;;;5.00;99.90;;;;;;4996191;28;19929;-80
2022/12/19 06:45:26;;;;;;;;;;;5.10;99.90;;;;;;4999272;28;19926;-80
2022/12/19 06:47:53;;;;;;;;;;;5.10;99.90;;;;;;5016295;28;19926;-81
2022/12/19 06:50:21;;;;;;;;;;;5.10;99.90;;;;;;5025019;28;19933;-81
2022/12/19 06:52:48;;;;;;;;;;;5.10;99.90;;;;;;4999557;28;19949;-81
2022/12/19 06:55:16;;;;;;;;;;;5.20;99.90;;;;;;5011046;28;19929;-80
2022/12/19 06:57:45;;;;;;;;;;;5.20;99.90;;;;;;5014031;28;19926;-80
2022/12/19 07:00:12;;;;;;;;;;;5.20;99.90;;;;;;4996407;28;20379;-80
2022/12/19 07:02:42;;;;;;;;;;;5.30;99.90;;;;;;5016359;28;20379;-79
2022/12/19 07:05:10;;;;;;;;;;;5.30;99.90;;;;;;5017090;28;19926;-81
2022/12/19 07:07:37;;;;;;;;;;;5.40;99.90;;;;;;4999456;28;19925;-80
2022/12/19 07:10:05;;;;;;;;;;;5.30;99.90;;;;;;4991993;28;19933;-79
2022/12/19 07:12:34;;;;;;;;;;;5.40;99.90;;;;;;4996831;28;19925;-80
2022/12/19 07:15:01;;;;;;;;;;;5.40;99.90;;;;;;5014959;28;19936;-79
2022/12/19 07:17:28;;;;;;;;;;;5.50;99.90;;;;;;5030661;28;19926;-79
2022/12/19 07:19:57;;;;;;;;;;;5.50;99.90;;;;;;5013739;28;19934;-80
2022/12/19 07:22:24;;;;;;;;;;;5.30;99.90;;;;;;4998529;28;20407;-78
2022/12/19 07:24:51;;;;;;;;;;;5.60;99.90;;;;;;5016240;28;19929;-78
2022/12/19 07:27:18;;;;;;;;;;;5.60;99.90;;;;;;5016591;28;19976;-80
2022/12/19 07:29:46;;;;;;;;;;;5.60;99.90;;;;;;4999613;28;19929;-81
2022/12/19 07:32:13;;;;;;;;;;;5.70;99.90;;;;;;5002518;28;19930;-79
2022/12/19 07:34:41;;;;;;;;;;;5.50;99.90;;;;;;5002071;28;20370;-79
2022/12/19 07:37:08;;;;;;;;;;;5.70;99.90;;;;;;5001764;28;19957;-78
2022/12/19 07:39:35;;;;;;;;;;;5.80;99.90;;;;;;4999698;28;19951;-79
2022/12/19 07:42:02;;;;;;;;;;;5.70;99.90;;;;;;5001403;28;19930;-78
2022/12/19 07:44:38;;;;;;;;;;;5.70;99.90;;;;;;5001015;28;19948;-76
2022/12/19 07:47:06;;;;;;;;;;;5.70;99.90;;;;;;5002357;28;20305;-79
2022/12/19 07:49:33;;;;;;;;;;;5.80;99.90;;;;;;5019042;28;20411;-79
2022/12/19 07:52:00;;;;;;;;;;;6.10;99.90;;;;;;4996152;28;19933;-78
2022/12/19 07:54:27;;;;;;;;;;;5.90;99.90;;;;;;4982986;28;20414;-79
2022/12/19 07:56:54;;;;;;;;;;;5.90;99.90;;;;;;4983707;28;20407;-80
2022/12/19 07:59:21;;;;;;;;;;;;;;;;;;4983572;28;20220;-79
2022/12/19 08:01:48;;;;;;;;;;;6.00;99.90;;;;;;5020032;28;19925;-80
2022/12/19 08:04:16;;;;;;;;;;;6.00;99.90;;;;;;5003087;28;20389;-80
2022/12/19 08:06:44;;;;;;;;;;;6.00;99.90;;;;;;5003056;28;19959;-80
2022/12/19 08:09:11;;;;;;;;;;;6.00;99.90;;;;;;5020493;28;19979;-79
2022/12/19 08:11:38;;;;;;;;;;;6.00;99.90;;;;;;5021168;28;19926;-80
2022/12/19 08:14:05;;;;;;;;;;;6.10;99.90;;;;;;5018791;28;20631;-79
2022/12/19 08:16:35;;;;;;;;;;;6.10;99.90;;;;;;5003988;28;19926;-79
2022/12/19 08:19:03;;;;;;;;;;;6.10;99.90;;;;;;5022031;28;19952;-78
2022/12/19 08:21:31;;;;;;;;;;;6.20;99.90;;;;;;5020638;28;19929;-78
2022/12/19 08:23:59;;;;;;;;;;;6.20;99.90;;;;;;5007862;28;19925;-79
2022/12/19 08:26:27;;;;;;;;;;;6.20;99.90;;;;;;5001917;28;19980;-77
2022/12/19 08:28:54;;;;;;;;;;;6.20;99.90;;;;;;5001812;28;19930;-79
2022/12/19 08:31:23;;;;;;;;;;;6.30;99.90;;;;;;5011721;28;19932;-78
2022/12/19 08:33:51;;;;;;;;;;;6.30;99.90;;;;;;5003012;28;19937;-79
2022/12/19 08:36:18;;;;;;;;;;;6.40;99.90;;;;;;5006808;28;19936;-77
2022/12/19 08:38:47;;;;;;;;;;;6.50;99.90;;;;;;5014825;28;19925;-78
2022/12/19 08:41:17;;;;;;;;;;;6.50;99.90;;;;;;5016518;28;19936;-81
2022/12/19 08:43:49;;;;;;;;;;;6.60;99.90;;;;;;5001754;28;19984;-79
2022/12/19 08:46:17;;;;;;;;;;;6.60;99.90;;;;;;4991508;28;20319;-77
2022/12/19 08:48:44;;;;;;;;;;;6.70;99.90;;;;;;4994332;28;20032;-77
2022/12/19 08:51:12;;;;;;;;;;;6.70;99.90;;;;;;5013479;28;19926;-77
2022/12/19 08:53:41;;;;;;;;;;;6.80;99.90;;;;;;4997877;28;19934;-80
2022/12/19 08:56:11;;;;;;;;;;;6.80;99.90;;;;;;5004786;28;19937;-80
2022/12/19 08:58:38;;;;;;;;;;;6.90;99.90;;;;;;5004887;28;19961;-81
2022/12/19 09:01:08;;;;;;;;;;;6.90;99.90;;;;;;5003909;28;19933;-80
2022/12/19 09:03:35;;;;;;;;;;;7.00;99.90;;;;;;4999206;28;20012;-79
2022/12/19 09:06:03;;;;;;;;;;;7.00;99.90;;;;;;5018576;28;20395;-78
2022/12/19 09:08:31;;;;;;;;;;;7.00;99.90;;;;;;5001720;28;19933;-79
2022/12/19 09:10:59;;;;;;;;;;;7.00;99.90;;;;;;5013108;28;20354;-78
2022/12/19 09:13:32;;;;;;;;;;;7.10;99.90;;;;;;5017123;28;20016;-79
2022/12/19 09:16:00;;;;;;;;;;;7.10;99.90;;;;;;5020180;28;20311;-79
2022/12/19 09:18:27;;;;;;;;;;;7.20;99.90;;;;;;4994603;28;20315;-79
2022/12/19 09:20:54;;;;;;;;;;;7.20;99.90;;;;;;5012073;28;19949;-79
2022/12/19 09:23:21;;;;;;;;;;;7.30;99.90;;;;;;5004426;28;19936;-80
2022/12/19 09:25:48;;;;;;;;;;;7.30;99.90;;;;;;5000273;28;19964;-79
2022/12/19 09:28:15;;;;;;;;;;;7.40;99.90;;;;;;5005751;28;19929;-79
2022/12/19 09:30:44;;;;;;;;;;;7.40;99.90;;;;;;5015205;28;20016;-79
2022/12/19 09:33:13;;;;;;;;;;;7.50;99.90;;;;;;5014544;28;19929;-80
2022/12/19 09:35:40;;;;;;;;;;;7.50;99.90;;;;;;5009394;28;19929;-79
2022/12/19 09:38:07;;;;;;;;;;;7.50;99.90;;;;;;4996235;28;20462;-80
2022/12/19 09:40:39;;;;;;;;;;;7.60;99.90;;;;;;5015465;28;20001;-80
2022/12/19 09:43:09;;;;;;;;;;;7.60;99.90;;;;;;5021346;28;19937;-80
2022/12/19 09:45:40;;;;;;;;;;;7.60;99.90;;;;;;4998525;28;19983;-81
2022/12/19 09:48:11;;;;;;;;;;;7.70;99.90;;;;;;5012282;28;20321;-80
2022/12/19 09:50:44;;;;;;;;;;;7.70;99.90;;;;;;5005183;28;19937;-81
2022/12/19 09:53:15;;;;;;;;;;;7.80;99.90;;;;;;4999596;28;19941;-81
2022/12/19 09:55:42;;;;;;;;;;;7.80;99.90;;;;;;4996351;28;19944;-81
2022/12/19 09:58:12;;;;;;;;;;;7.80;99.90;;;;;;5001512;28;19929;-80
2022/12/19 10:00:41;;;;;;;;;;;7.90;99.90;;;;;;4996933;28;19925;-81
2022/12/19 10:03:14;;;;;;;;;;;7.90;99.90;;;;;;4995706;28;19983;-80
2022/12/19 10:05:45;;;;;;;;;;;7.90;99.90;;;;;;4995315;28;19941;-80
2022/12/19 10:08:15;;;;;;;;;;;7.90;99.90;;;;;;5013878;28;20409;-80
2022/12/19 10:10:44;;;;;;;;;;;8.90;99.90;;;;;;4996301;28;19979;-80
2022/12/19 10:13:18;;;;;;;;;;;8.00;99.90;;;;;;4994897;28;19929;-80
2022/12/19 10:15:47;;;;;;;;;;;8.00;99.90;;;;;;4996114;28;19929;-80
2022/12/19 10:18:26;;;;;;;;;;;8.00;99.90;;;;;;4993933;28;20354;-82
2022/12/19 10:21:04;;;;;;;;;;;8.10;99.90;;;;;;5024204;28;19930;-81
2022/12/19 10:23:50;;;;;;;;;;;8.10;99.90;;;;;;5022844;28;19933;-79
2022/12/19 10:26:38;;;;;;;;;;;8.20;99.90;;;;;;4995678;28;20342;-80
2022/12/19 10:29:14;;;;;;;;;;;8.20;99.90;;;;;;5012342;28;19929;-78
2022/12/19 10:31:55;;;;;;;;;;;8.30;99.90;;;;;;5006591;28;19928;-80
2022/12/19 10:34:35;;;;;;;;;;;8.30;99.90;;;;;;5018405;28;19929;-79
2022/12/19 10:37:10;;;;;;;;;;;8.40;99.90;;;;;;4996513;28;20342;-80
2022/12/19 10:43:00;;;;;;;;;;;8.60;99.90;;;;;;4952520;28;19925;-85
2022/12/19 10:45:30;;;;;;;;;;;8.70;99.90;;;;;;4993815;28;19933;-85
2022/12/19 10:47:57;;;;;;;;;;;8.70;99.90;;;;;;4995182;28;19929;-86
2022/12/19 10:50:36;;;;;;;;;;;8.70;99.90;;;;;;5001916;28;20340;-85
2022/12/19 10:55:55;;;;;;;;;;;8.70;99.90;;;;;;5016464;28;20028;-85
2022/12/19 10:58:33;;;;;;;;;;;8.60;99.90;;;;;;5000814;28;19935;-87
2022/12/19 11:01:03;;;;;;;;;;;8.60;99.90;;;;;;4989335;28;19929;-84
2022/12/19 11:03:31;;;;;;;;;;;8.60;99.90;;;;;;4995674;28;19997;-84
2022/12/19 11:05:58;;;;;;;;;;;8.60;99.90;;;;;;4997536;28;19925;-84
2022/12/19 11:08:28;;;;;;;;;;;8.60;99.90;;;;;;5008669;28;19930;-84
2022/12/19 11:10:56;;;;;;;;;;;8.60;99.90;;;;;;5016641;28;19929;-83
2022/12/19 11:13:25;;;;;;;;;;;8.60;99.90;;;;;;5016588;28;19925;-83
2022/12/19 11:15:53;;;;;;;;;;;8.60;99.90;;;;;;4998774;28;19933;-85
2022/12/19 11:18:20;;;;;;;;;;;8.60;99.90;;;;;;4998634;28;20415;-83
2022/12/19 11:20:55;;;;;;;;;;;8.60;99.90;;;;;;4993612;28;19933;-84
2022/12/19 11:23:22;;;;;;;;;;;8.60;99.90;;;;;;4993001;28;20017;-85
2022/12/19 11:25:55;;;;;;;;;;;8.60;99.90;;;;;;4997155;28;21397;-82
2022/12/19 11:28:24;;;;;;;;;;;8.60;99.90;;;;;;5007399;28;19922;-84
2022/12/19 11:30:56;;;;;;;;;;;8.60;99.90;;;;;;4996868;28;19934;-83
2022/12/19 11:33:23;;;;;;;;;;;8.60;99.90;;;;;;4995813;28;20017;-84
2022/12/19 11:35:52;;;;;;;;;;;8.60;99.90;;;;;;5012964;28;20322;-83
2022/12/19 11:38:21;;;;;;;;;;;8.60;99.90;;;;;;4988005;28;19930;-86
2022/12/19 11:40:50;;;;;;;;;;;8.60;99.90;;;;;;5008504;28;19930;-85
2022/12/19 11:43:21;;;;;;;;;;;8.60;99.90;;;;;;4997808;28;19933;-85
2022/12/19 11:45:51;;;;;;;;;;;8.70;99.90;;;;;;5007866;28;20074;-84
2022/12/19 11:48:20;;;;;;;;;;;8.80;99.90;;;;;;4988172;28;20016;-84
2022/12/19 11:50:51;;;;;;;;;;;8.90;99.90;;;;;;4993815;28;19936;-84
2022/12/19 11:53:20;;;;;;;;;;;8.90;99.90;;;;;;5018229;28;20550;-86
2022/12/19 11:55:51;;;;;;;;;;;9.00;99.90;;;;;;4995574;28;20541;-84
2022/12/19 11:58:21;;;;;;;;;;;9.00;99.90;;;;;;5015816;28;19929;-84
2022/12/19 12:00:51;;;;;;;;;;;9.00;99.90;;;;;;5017293;28;19933;-86
2022/12/19 12:03:33;;;;;;;;;;;9.20;99.90;;;;;;5017868;28;19929;-83
2022/12/19 12:06:04;;;;;;;;;;;9.20;99.90;;;;;;4995568;28;20019;-85
2022/12/19 12:08:37;;;;;;;;;;;9.20;99.90;;;;;;4991859;28;19926;-84
2022/12/19 12:11:19;;;;;;;;;;;9.20;99.90;;;;;;4997086;28;19926;-83
2022/12/19 12:13:56;;;;;;;;;;;9.30;99.90;;;;;;5000078;28;19939;-83
2022/12/19 12:16:24;;;;;;;;;;;9.30;99.90;;;;;;5017938;28;19926;-84
2022/12/19 12:18:58;;;;;;;;;;;9.40;99.90;;;;;;5018591;28;20379;-83
2022/12/19 12:21:26;;;;;;;;;;;9.50;99.90;;;;;;5003081;28;20114;-84
2022/12/19 12:24:04;;;;;;;;;;;9.50;99.90;;;;;;4997242;28;19952;-84
2022/12/19 12:26:33;;;;;;;;;;;9.60;99.90;;;;;;5018199;28;19952;-83
2022/12/19 12:29:07;;;;;;;;;;;9.60;99.90;;;;;;4998782;28;19936;-85
2022/12/19 12:31:49;;;;;;;;;;;9.70;99.90;;;;;;5000740;28;19929;-83
2022/12/19 12:34:29;;;;;;;;;;;9.80;99.90;;;;;;4987310;28;19936;-83
2022/12/19 12:37:04;;;;;;;;;;;9.90;99.90;;;;;;5004518;28;19929;-84
2022/12/19 12:39:37;;;;;;;;;;;9.90;99.90;;;;;;5013783;28;19929;-78
2022/12/19 12:42:11;;;;;;;;;;;9.90;99.90;;;;;;4994392;28;19929;-78
2022/12/19 12:44:40;;;;;;;;;;;10.00;99.90;;;;;;5009803;28;19934;-79
2022/12/19 12:47:12;;;;;;;;;;;10.00;99.90;;;;;;4996421;28;19929;-79
2022/12/19 12:49:41;;;;;;;;;;;9.40;99.90;;;;;;4995918;28;19930;-80
2022/12/19 12:52:10;;;;;;;;;;;10.10;99.90;;;;;;5000360;28;19929;-80
2022/12/19 12:54:42;;;;;;;;;;;10.20;99.90;;;;;;5017375;28;19945;-79
2022/12/19 12:57:17;;;;;;;;;;;10.30;99.90;;;;;;4999251;28;20406;-80
2022/12/19 12:59:47;;;;;;;;;;;10.40;99.90;;;;;;5015516;28;19933;-80
2022/12/19 13:02:16;;;;;;;;;;;10.50;99.90;;;;;;4998526;28;20158;-81
2022/12/19 13:04:55;;;;;;;;;;;10.50;99.90;;;;;;4998453;28;19972;-78
2022/12/19 13:07:29;;;;;;;;;;;10.50;99.90;;;;;;5000715;28;20434;-80
2022/12/19 13:10:14;;;;;;;;;;;10.60;99.90;;;;;;5012911;28;20271;-80
2022/12/19 13:13:02;;;;;;;;;;;10.60;99.90;;;;;;5018025;28;20399;-78
2022/12/19 13:15:40;;;;;;;;;;;10.50;99.90;;;;;;4995689;28;19914;-78
2022/12/19 13:18:11;;;;;;;;;;;10.50;99.90;;;;;;4996728;28;19930;-78
2022/12/19 13:20:46;;;;;;;;;;;11.00;99.90;;;;;;5011367;28;19953;-79
2022/12/19 13:23:23;;;;;;;;;;;10.50;99.90;;;;;;4989865;28;19938;-78
2022/12/19 13:25:52;;;;;;;;;;;10.50;99.90;;;;;;5000508;28;19934;-78
2022/12/19 13:28:38;;;;;;;;;;;10.40;99.90;;;;;;4997842;28;19929;-78
2022/12/19 13:31:17;;;;;;;;;;;10.40;99.90;;;;;;4997864;28;20020;-78
2022/12/19 13:33:48;;;;;;;;;;;10.40;99.90;;;;;;4999207;28;19926;-77
2022/12/19 13:36:33;;;;;;;;;;;10.30;99.90;;;;;;4998525;28;19971;-78
2022/12/19 13:39:00;;;;;;;;;;;10.30;99.90;;;;;;4999311;28;19929;-78
2022/12/19 13:44:13;;;;;;;;;;;10.10;99.90;;;;;;5017114;28;19929;-78
2022/12/19 13:46:43;;;;;;;;;;;10.10;99.90;;;;;;4999898;28;19914;-77
2022/12/19 13:49:14;;;;;;;;;;;10.00;99.90;;;;;;5017481;28;20096;-79
2022/12/19 13:51:43;;;;;;;;;;;9.90;99.90;;;;;;4998607;28;20050;-79
2022/12/19 13:54:18;;;;;;;;;;;9.80;99.90;;;;;;4998147;28;20236;-79
2022/12/19 13:56:45;;;;;;;;;;;9.80;99.90;;;;;;4998845;28;20296;-79
2022/12/19 13:59:12;;;;;;;;;;;9.70;99.90;;;;;;4999486;28;19933;-78
2022/12/19 14:01:40;;;;;;;;;;;9.60;99.90;;;;;;4998228;28;19948;-75
2022/12/19 14:04:10;;;;;;;;;;;9.60;99.90;;;;;;4997301;28;19925;-76
2022/12/19 14:06:41;;;;;;;;;;;9.60;99.90;;;;;;4997892;28;19983;-78
2022/12/19 14:09:09;;;;;;;;;;;9.50;99.90;;;;;;4998251;28;19934;-79
2022/12/19 14:11:38;;;;;;;;;;;9.50;99.90;;;;;;4999291;28;19929;-80
2022/12/19 14:16:50;;;;;;;;;;;9.40;99.90;;;;;;5015963;28;19929;-79
2022/12/19 14:19:20;;;;;;;;;;;9.40;99.90;;;;;;4998084;28;19935;-79
2022/12/19 14:21:50;;;;;;;;;;;9.40;99.90;;;;;;4998348;28;19926;-80
2022/12/19 14:24:19;;;;;;;;;;;9.40;99.90;;;;;;4997577;28;19969;-75
2022/12/19 14:26:47;;;;;;;;;;;9.40;99.90;;;;;;4998394;28;19930;-77
2022/12/19 14:29:15;;;;;;;;;;;9.30;99.90;;;;;;4999998;28;19936;-78
2022/12/19 14:31:45;;;;;;;;;;;9.30;99.90;;;;;;4998372;28;19925;-78
2022/12/19 14:34:18;;;;;;;;;;;9.20;99.90;;;;;;5017204;28;19929;-78
2022/12/19 14:36:50;;;;;;;;;;;9.20;99.90;;;;;;5018128;28;19932;-78
2022/12/19 14:39:18;;;;;;;;;;;9.20;99.90;;;;;;5018100;28;19925;-79
2022/12/19 14:44:43;;;;;;;;;;;9.20;99.90;;;;;;5020766;28;19921;-78
2022/12/19 14:47:11;;;;;;;;;;;9.20;99.90;;;;;;5007801;28;20405;-81
2022/12/19 14:49:38;;;;;;;;;;;9.20;99.90;;;;;;4996938;28;19937;-80
2022/12/19 14:52:20;;;;;;;;;;;9.20;99.90;;;;;;4998699;28;19932;-80
2022/12/19 14:57:42;;;;;;;;;;;9.20;99.90;;;;;;5102881;27;20282;-75
2022/12/19 15:00:22;;;;;;;;;;;9.20;99.90;;;;;;5090204;28;19936;-75
2022/12/19 15:02:49;;;;;;;;;;;9.20;99.90;;;;;;5083565;28;20354;-76
2022/12/19 15:05:17;;;;;;;;;;;9.20;99.90;;;;;;5075647;28;19925;-77